Ana Sayfa
METAR-TAF:

METAR-TAF

Havaalanları :

Hong Kong Uluslararası Havalimanı

Hong Kong, Çin

Enlem: 22-19N, Boylam: 113-55E, yükseklik: 9 m

Güncel hava durumu gözlemi

Rapor saat 11:30 UTC de 17 dakika önce yapıldı.
Rüzgar kuzeydan 8 kt
Sıcaklık 17°C
Nem 68%
Basınç 1020 hPa
Görüş mesafesi 10 km veya daha fazla
2500 ft yükseklikte az bulutlu

METAR: VHHH 101130Z 36008KT 9999 FEW025 17/11 Q1020 NOSIG

Saat: 19:47 (11:47 UTC)

Tahmin

Rapor saat 11:00 UTC de 47 dakika önce yapıldı.
Ayın 10'si saat 12 UTC'den ayın 11'si saat 18 UTC'ye kadar geçerli Tahmin
Rüzgar kuzeydan 10 kt
Görüş mesafesi: 9000 m
2500 ft yükseklikte az bulutlu
Geçici
ayın 11'si saat 12 UTC'den ayın 11'si saat 18 UTC'ye kadar
Rüzgar kuzeydan 20 kt

TAF: VHHH 101100Z 1012/1118 36010KT 9000 FEW025 TX17/1106Z TN13/1023Z TN13/1118Z TEMPO 1112/1118 36020KT

4.000'den fazla havaalanı için hava durumu gözlemleri ve tahminleri (METAR ve TAF raporları).

Kullanılabilir istasyonlar harita üzerinde sarı ve kırmızı noktalarla gösterilir.

İstasyonun adını görmek için fareyi noktanın üzerinde gezdirin.

Sonrasında hava gözlem ve tahminlerini görmek için tıklayın.

Haritayı değiştirmek için: yaklaştırmak için siyah artı işaretli yeşil düğmeye ve uzaklaştırmak için de eksi işaretli düğmeye hızla tıklayın; bitişik haritalar için yeşil okları kullanın.


METAR-TAF: